Monterey, Virginia
Current Conditions -  °F | °C
As of 6:35 PM on Monday 22 Dec 2014 (Local Time) from KVBW Reporting Station
Overcast Overcast  
Wind Chill: 32°   Ceiling: 400
Heat Index: 32°   Visibility: 3mi
Dew Point: 31°   Wind: 3mph
Humidity: 96%   Direction: 20°NNE
Pressure: 30.12"   Gusts: NA
Location:  38.41°N, 79.58°W
Report Text: KVBW 222335Z AUTO 02003KT 3SM BKN004 OVC017 00/00 A3012 RMK AO2 T00001005
Loading
Personal Weather Stations






























Interactive Weather Map New forecast layout! Learn more

10-Day Weather Forecast

Advertisements
Track Severe Weather on mobile